^^
Station Historical Data
Daily Summary for February 10, 2018 Units:  English    Metric   Both
« Previous Day
Next Day »
Daily Weekly Monthly Yearly Custom
  High: Low: Average:
Temperature: TemperatureF °F 61.0 °F 66.4 °F
Dew Point: DewpointF °F 50.9 °F 55.1 °F
Humidity: Humidity% 50% 67%
Wind Speed: WindSpeedMPHmph -999.9mph -12.6mph
Wind Gust: WindSpeedGustMPHmph - -
Wind- -
Pressure: PressureIn in 29.60 in -
Precipitation: 0.01 in    
Historical Graphs
 
 
Tabular Data for February 10, 2018
Time Temperature Dew Point Pressure Wind Wind Speed Wind Gust Humidity Rainfall Rate (Hourly) solar Conditions
TemperatureF °F DewpointF °F PressureIn in Calm     Humidity% HourlyPrecipIn in SoftwareType W/m2 Conditions
07:58 61.0 °F 56.1 °F 29.65 in North -999.9 mph -999.0 mph 84% 0.00 in meteobridge W/m2
08:04 61.3 °F 56.1 °F 29.65 in NNE 6.0 mph 16.0 mph 83% 0.00 in meteobridge W/m2
08:11 61.5 °F 55.9 °F 29.65 in NNE 6.0 mph 13.0 mph 82% 0.00 in meteobridge W/m2
08:16 62.2 °F 56.3 °F 29.66 in NNE 11.0 mph 13.0 mph 81% 0.00 in meteobridge W/m2
08:23 63.0 °F 56.3 °F 29.66 in North 6.9 mph 15.0 mph 79% 0.00 in meteobridge W/m2
08:29 63.7 °F 56.3 °F 29.66 in NNE 6.0 mph 13.0 mph 77% 0.00 in meteobridge W/m2
08:35 64.2 °F 56.5 °F 29.66 in North 8.9 mph 12.0 mph 76% 0.00 in meteobridge W/m2
08:41 64.8 °F 56.7 °F 29.66 in North 8.9 mph 13.0 mph 75% 0.00 in meteobridge W/m2
08:47 64.9 °F 56.5 °F 29.66 in NNE 11.0 mph 13.0 mph 74% 0.00 in meteobridge W/m2
08:53 65.1 °F 56.3 °F 29.67 in North 6.0 mph 12.0 mph 73% 0.00 in meteobridge W/m2
08:59 65.1 °F 55.9 °F 29.67 in North 10.1 mph 11.0 mph 72% 0.00 in meteobridge W/m2
09:05 65.1 °F 55.4 °F 29.67 in NNW 8.9 mph 16.0 mph 71% 0.00 in meteobridge W/m2
09:12 65.5 °F 55.8 °F 29.67 in North 4.0 mph 11.0 mph 71% 0.00 in meteobridge W/m2
09:18 65.7 °F 55.6 °F 29.67 in North 4.9 mph 14.0 mph 70% 0.00 in meteobridge W/m2
09:24 66.0 °F 55.6 °F 29.67 in NNE 2.9 mph 11.0 mph 69% 0.00 in meteobridge W/m2
09:30 66.2 °F 56.1 °F 29.67 in NNW 4.0 mph 12.0 mph 70% 0.00 in meteobridge W/m2
09:36 66.4 °F 56.3 °F 29.67 in North 8.1 mph 10.0 mph 70% 0.00 in meteobridge W/m2
09:42 66.2 °F 55.8 °F 29.67 in North 4.0 mph 11.0 mph 69% 0.00 in meteobridge W/m2
09:48 66.2 °F 55.8 °F 29.67 in North 4.0 mph 12.0 mph 69% 0.00 in meteobridge W/m2
09:55 66.7 °F 55.8 °F 29.67 in NNE 2.9 mph 11.0 mph 68% 0.00 in meteobridge W/m2
10:01 67.6 °F 55.9 °F 29.67 in NNE 4.9 mph 10.0 mph 66% 0.00 in meteobridge W/m2
10:07 68.4 °F 55.8 °F 29.68 in NNE 4.0 mph 10.0 mph 64% 0.00 in meteobridge W/m2
10:13 69.1 °F 56.5 °F 29.68 in NNE 6.9 mph 11.0 mph 64% 0.00 in meteobridge W/m2
10:19 68.7 °F 55.6 °F 29.68 in NNE 6.0 mph 13.0 mph 63% 0.00 in meteobridge W/m2
10:25 69.3 °F 56.1 °F 29.67 in NNE 4.0 mph 7.0 mph 63% 0.00 in meteobridge W/m2
10:31 69.4 °F 56.3 °F 29.67 in North 4.9 mph 12.0 mph 63% 0.00 in meteobridge W/m2
10:37 70.0 °F 56.8 °F 29.67 in North 6.0 mph 10.0 mph 63% 0.00 in meteobridge W/m2
10:48 70.0 °F 56.3 °F 29.67 in North 10.1 mph 14.0 mph 62% 0.00 in meteobridge W/m2
10:54 69.4 °F 56.3 °F 29.67 in NNE 4.0 mph 10.0 mph 63% 0.00 in meteobridge W/m2
11:00 70.0 °F 56.3 °F 29.67 in NNW 12.1 mph 15.0 mph 62% 0.00 in meteobridge W/m2
11:06 70.0 °F 55.9 °F 29.67 in North 2.9 mph 12.0 mph 61% 0.00 in meteobridge W/m2
11:12 71.1 °F 56.5 °F 29.66 in North 12.1 mph 12.1 mph 60% 0.00 in meteobridge W/m2
11:20 71.2 °F 56.7 °F 29.66 in North 4.0 mph 7.0 mph 60% 0.00 in meteobridge W/m2
11:26 71.8 °F 57.2 °F 29.66 in NNW 11.0 mph 13.0 mph 60% 0.00 in meteobridge W/m2
11:32 71.6 °F 56.5 °F 29.65 in NNE 6.9 mph 12.0 mph 59% 0.00 in meteobridge W/m2
11:38 71.1 °F 55.6 °F 29.65 in NNW 11.0 mph 15.0 mph 58% 0.00 in meteobridge W/m2
11:45 71.4 °F 55.4 °F 29.65 in NNE 11.0 mph 14.0 mph 57% 0.00 in meteobridge W/m2
11:51 71.4 °F 55.4 °F 29.65 in NNE 4.9 mph 12.0 mph 57% 0.00 in meteobridge W/m2
11:57 71.6 °F 56.1 °F 29.65 in NE 2.0 mph 10.0 mph 58% 0.00 in meteobridge W/m2
12:03 72.9 °F 56.3 °F 29.65 in NE 6.0 mph 11.0 mph 56% 0.00 in meteobridge W/m2
12:09 73.2 °F 56.7 °F 29.64 in NE 6.9 mph 16.0 mph 56% 0.00 in meteobridge W/m2
12:16 73.6 °F 55.9 °F 29.64 in North 2.9 mph 6.0 mph 54% 0.00 in meteobridge W/m2
12:22 73.9 °F 55.8 °F 29.63 in NE 6.9 mph 7.0 mph 53% 0.00 in meteobridge W/m2
12:28 74.7 °F 55.9 °F 29.63 in North 10.1 mph 14.0 mph 52% 0.00 in meteobridge W/m2
12:34 73.9 °F 55.2 °F 29.63 in NNE 15.0 mph 16.0 mph 52% 0.00 in meteobridge W/m2
12:40 73.9 °F 55.2 °F 29.63 in NNE 8.1 mph 8.1 mph 52% 0.00 in meteobridge W/m2
12:46 75.6 °F 55.6 °F 29.63 in North 10.1 mph 17.0 mph 50% 0.00 in meteobridge W/m2
12:52 73.8 °F 54.5 °F 29.63 in NNE 6.9 mph 11.0 mph 51% 0.00 in meteobridge W/m2
12:58 72.7 °F 54.0 °F 29.63 in NNE 6.0 mph 12.0 mph 52% 0.00 in meteobridge W/m2
13:04 72.1 °F 54.1 °F 29.63 in NNE 4.9 mph 12.0 mph 53% 0.00 in meteobridge W/m2
13:10 72.1 °F 54.1 °F 29.63 in NNW 4.0 mph 11.0 mph 53% 0.00 in meteobridge W/m2
13:16 72.0 °F 54.0 °F 29.63 in NNW 0.9 mph 4.0 mph 53% 0.00 in meteobridge W/m2
13:23 72.0 °F 54.0 °F 29.63 in NNE 2.0 mph 10.0 mph 53% 0.00 in meteobridge W/m2
13:29 72.0 °F 53.4 °F 29.62 in NNE 6.9 mph 10.0 mph 52% 0.00 in meteobridge W/m2
13:35 72.1 °F 53.6 °F 29.62 in NNW 6.0 mph 6.0 mph 52% 0.00 in meteobridge W/m2
13:41 72.1 °F 53.1 °F 29.62 in NNE 4.9 mph 13.0 mph 51% 0.00 in meteobridge W/m2
13:47 72.3 °F 53.8 °F 29.62 in NNE 2.0 mph 9.0 mph 52% 0.00 in meteobridge W/m2
13:53 72.3 °F 54.7 °F 29.62 in NE 4.0 mph 7.0 mph 54% 0.00 in meteobridge W/m2
14:00 72.0 °F 52.9 °F 29.61 in North 10.1 mph 12.0 mph 51% 0.00 in meteobridge W/m2
14:06 71.1 °F 53.6 °F 29.61 in NNW 8.9 mph 16.0 mph 54% 0.00 in meteobridge W/m2
14:12 70.3 °F 51.4 °F 29.61 in NNW 10.1 mph 16.0 mph 51% 0.00 in meteobridge W/m2
14:18 70.3 °F 50.9 °F 29.60 in North 8.9 mph 15.0 mph 50% 0.00 in meteobridge W/m2
14:24 70.3 °F 52.9 °F 29.61 in SSW 6.0 mph 6.0 mph 54% 0.00 in meteobridge W/m2
14:30 69.4 °F 54.9 °F 29.61 in ESE 2.9 mph 11.0 mph 60% 0.00 in meteobridge W/m2
14:36 68.7 °F 55.6 °F 29.60 in SE 4.0 mph 8.0 mph 63% 0.00 in meteobridge W/m2
14:42 68.2 °F 55.9 °F 29.60 in SE 6.0 mph 7.0 mph 65% 0.00 in meteobridge W/m2
14:48 67.6 °F 56.3 °F 29.60 in SE 4.0 mph 4.0 mph 67% 0.00 in meteobridge W/m2
14:54 67.1 °F 55.8 °F 29.60 in Calm   3.0 mph 67% 0.00 in meteobridge W/m2
15:01 66.7 °F 55.0 °F 29.60 in NNE 4.9 mph 9.0 mph 66% 0.00 in meteobridge W/m2
15:07 66.0 °F 55.2 °F 29.60 in Calm   4.0 mph 68% 0.00 in meteobridge W/m2
15:13 66.2 °F 56.1 °F 29.60 in NNE 2.0 mph 2.0 mph 70% 0.00 in meteobridge W/m2
15:19 66.6 °F 56.1 °F 29.61 in NNE 0.9 mph 3.0 mph 69% 0.00 in meteobridge W/m2
15:25 67.1 °F 56.7 °F 29.61 in Calm   3.0 mph 69% 0.00 in meteobridge W/m2
15:32 67.6 °F 57.0 °F 29.61 in Calm   2.0 mph 69% 0.00 in meteobridge W/m2
15:38 67.8 °F 56.5 °F 29.61 in East 4.9 mph 6.0 mph 67% 0.00 in meteobridge W/m2
15:44 67.8 °F 57.7 °F 29.61 in SSE 2.0 mph 4.0 mph 70% 0.00 in meteobridge W/m2
15:50 67.5 °F 57.7 °F 29.61 in SSE 2.9 mph 3.0 mph 71% 0.00 in meteobridge W/m2
15:56 66.4 °F 56.7 °F 29.62 in NE 10.1 mph 13.0 mph 71% 0.00 in meteobridge W/m2
16:02 63.5 °F 55.8 °F 29.62 in NE 11.0 mph 19.0 mph 76% 0.00 in meteobridge W/m2
16:08 62.4 °F 56.5 °F 29.63 in North 13.0 mph 16.0 mph 81% 0.00 in meteobridge W/m2
16:14 61.9 °F 56.7 °F 29.63 in NNE 6.9 mph 13.0 mph 83% 0.00 in meteobridge W/m2
16:20 61.9 °F 57.0 °F 29.63 in NNW 8.9 mph 13.0 mph 84% 0.00 in meteobridge W/m2
16:27 62.1 °F 56.8 °F 29.64 in North 6.0 mph 12.0 mph 83% 0.00 in meteobridge W/m2
16:33 62.4 °F 56.1 °F 29.64 in NNW 8.1 mph 16.0 mph 80% 0.00 in meteobridge W/m2
16:39 62.4 °F 55.4 °F 29.63 in North 8.1 mph 16.0 mph 78% 0.00 in meteobridge W/m2
16:45 61.9 °F 54.7 °F 29.63 in North 6.0 mph 10.0 mph 77% 0.00 in meteobridge W/m2
16:51 61.5 °F 54.9 °F 29.64 in North 4.9 mph 7.0 mph 79% 0.00 in meteobridge W/m2
16:57 61.5 °F 54.9 °F 29.64 in NE 6.0 mph 13.0 mph 79% 0.00 in meteobridge W/m2
17:03 61.3 °F 55.4 °F 29.64 in East 2.0 mph 7.0 mph 81% 0.01 in meteobridge W/m2
17:09 61.3 °F 55.4 °F 29.64 in North 4.9 mph 6.0 mph 81% 0.01 in meteobridge W/m2
17:16 61.3 °F 54.9 °F 29.65 in North 2.9 mph 5.0 mph 79% 0.01 in meteobridge W/m2
17:22 61.3 °F 55.0 °F 29.64 in North 2.0 mph 5.0 mph 80% 0.01 in meteobridge W/m2
17:28 61.5 °F 55.2 °F 29.64 in NNW 4.9 mph 7.0 mph 80% 0.01 in meteobridge W/m2
17:34 61.7 °F 55.0 °F 29.65 in NNW 2.9 mph 7.0 mph 79% 0.01 in meteobridge W/m2
17:40 62.1 °F 55.4 °F 29.64 in NNW 2.0 mph 6.0 mph 79% 0.01 in meteobridge W/m2
17:46 62.2 °F 55.2 °F 29.65 in North 2.9 mph 6.0 mph 78% 0.00 in meteobridge W/m2
17:52 62.2 °F 55.2 °F 29.65 in NNE 0.9 mph 4.0 mph 78% 0.00 in meteobridge W/m2
17:59 62.4 °F 55.4 °F 29.65 in NNE 2.9 mph 5.0 mph 78% 0.00 in meteobridge W/m2
18:05 62.6 °F 55.6 °F 29.65 in NNE 0.9 mph 3.0 mph 78% 0.00 in meteobridge W/m2
18:11 62.8 °F 55.8 °F 29.66 in NNE 2.9 mph 3.0 mph 78% 0.00 in meteobridge W/m2
18:17 63.1 °F 55.8 °F 29.66 in NNE 4.0 mph 4.0 mph 77% 0.00 in meteobridge W/m2
18:23 63.1 °F 55.4 °F 29.66 in NNE 0.9 mph 2.0 mph 76% 0.00 in meteobridge W/m2
18:29 63.5 °F 55.8 °F 29.67 in Calm   2.0 mph 76% 0.00 in meteobridge W/m2
18:35 63.7 °F 55.6 °F 29.67 in Calm   3.0 mph 75% 0.00 in meteobridge W/m2
18:42 63.9 °F 55.8 °F 29.67 in East 0.9 mph 4.0 mph 75% 0.00 in meteobridge W/m2
18:48 63.9 °F 56.1 °F 29.68 in South 2.9 mph 5.0 mph 76% 0.00 in meteobridge W/m2
18:54 63.7 °F 56.3 °F 29.68 in South 4.0 mph 9.0 mph 77% 0.00 in meteobridge W/m2
19:00 63.3 °F 55.9 °F 29.68 in South 2.9 mph 4.0 mph 77% 0.00 in meteobridge W/m2
19:06 63.3 °F 55.9 °F 29.68 in South 2.0 mph 2.0 mph 77% 0.00 in meteobridge W/m2
19:13 63.3 °F 55.9 °F 29.69 in South 2.0 mph -999.0 mph 77% 0.00 in meteobridge W/m2
19:20 63.3 °F 55.9 °F 29.70 in North -999.9 mph -999.0 mph 77% 0.00 in meteobridge W/m2
Regenstein, Windhoek, Namibia
Compliments of Weather Underground - 2.5 mb